createdAt,value
2023-03-17T00:00:31.847Z,8.52
2023-03-17T00:03:25.641Z,13.70
2023-03-17T00:09:02.192Z,19.38
2023-03-17T00:11:49.101Z,13.55
2023-03-17T00:14:34.751Z,15.70
2023-03-17T00:17:20.522Z,19.45
2023-03-17T00:20:07.283Z,16.50
2023-03-17T00:22:54.802Z,15.25
2023-03-17T00:25:43.188Z,11.30
2023-03-17T00:28:28.476Z,14.82
2023-03-17T00:31:25.726Z,12.65
2023-03-17T00:34:16.722Z,9.90
2023-03-17T00:37:04.369Z,15.15
2023-03-17T00:39:50.120Z,9.57
2023-03-17T00:42:35.549Z,17.48
2023-03-17T00:45:23.549Z,13.70
2023-03-17T00:48:17.735Z,20.33
2023-03-17T00:51:03.201Z,13.68
2023-03-17T00:53:48.941Z,17.60
2023-03-17T00:56:34.428Z,14.63
2023-03-17T00:59:38.768Z,15.57
2023-03-17T01:02:24.420Z,11.30
2023-03-17T01:05:10.651Z,12.65
2023-03-17T01:07:58.875Z,13.82
2023-03-17T01:10:44.734Z,15.77
2023-03-17T01:13:30.447Z,14.52
2023-03-17T01:16:17.082Z,14.65
2023-03-17T01:19:02.659Z,15.93
2023-03-17T01:21:48.310Z,11.60
2023-03-17T01:24:33.718Z,13.13
2023-03-17T01:27:19.412Z,11.52
2023-03-17T01:30:06.678Z,14.50
2023-03-17T01:32:53.055Z,13.88
2023-03-17T01:35:39.758Z,18.58
2023-03-17T01:38:25.300Z,17.83
2023-03-17T01:41:10.891Z,17.75
2023-03-17T01:43:56.531Z,19.90
2023-03-17T01:46:41.717Z,16.75
2023-03-17T01:49:38.871Z,15.38
2023-03-17T01:52:24.393Z,13.32
2023-03-17T01:55:14.575Z,14.80
2023-03-17T01:58:00.525Z,16.45
2023-03-17T02:00:46.607Z,19.58
2023-03-17T02:03:33.195Z,17.40
2023-03-17T02:06:19.000Z,11.38
2023-03-17T02:09:04.915Z,18.92
2023-03-17T02:11:50.907Z,16.83
2023-03-17T02:14:36.632Z,18.60
2023-03-17T02:17:23.940Z,16.38
2023-03-17T02:20:18.934Z,20.73
2023-03-17T02:23:05.997Z,14.82
2023-03-17T02:25:53.805Z,14.45
2023-03-17T02:28:39.715Z,18.40
2023-03-17T02:31:27.060Z,15.38
2023-03-17T02:34:12.464Z,19.13
2023-03-17T02:36:58.510Z,19.60
2023-03-17T02:39:44.427Z,14.25
2023-03-17T02:42:29.844Z,21.50
2023-03-17T02:45:15.632Z,15.02
2023-03-17T02:48:01.372Z,17.38
2023-03-17T02:50:46.969Z,13.57
2023-03-17T02:53:32.763Z,18.58
2023-03-17T02:56:18.362Z,17.80
2023-03-17T02:59:04.258Z,20.80
2023-03-17T03:01:50.821Z,12.27
2023-03-17T03:04:36.689Z,15.35
2023-03-17T03:07:22.901Z,12.15
2023-03-17T03:10:09.342Z,17.95
2023-03-17T03:12:55.080Z,14.05
2023-03-17T03:15:44.033Z,16.58
2023-03-17T03:18:30.045Z,16.02
2023-03-17T03:21:30.788Z,16.40
2023-03-17T03:24:16.969Z,16.23
2023-03-17T03:27:02.303Z,18.85
2023-03-17T03:29:47.987Z,16.60
2023-03-17T03:32:34.689Z,20.33
2023-03-17T03:35:20.607Z,16.30
2023-03-17T03:38:07.149Z,22.98
2023-03-17T03:40:52.606Z,15.60
2023-03-17T03:43:37.951Z,18.83
2023-03-17T03:46:23.814Z,17.27
2023-03-17T03:49:09.780Z,17.63
2023-03-17T03:51:55.591Z,16.02
2023-03-17T03:54:40.827Z,19.15
2023-03-17T03:57:26.571Z,14.77
2023-03-17T04:00:14.162Z,18.52
2023-03-17T04:03:00.647Z,23.17
2023-03-17T04:05:46.349Z,18.50
2023-03-17T04:08:32.656Z,19.50
2023-03-17T04:11:18.510Z,21.60
2023-03-17T04:14:04.161Z,17.80
2023-03-17T04:16:49.465Z,22.20
2023-03-17T04:19:35.273Z,18.45
2023-03-17T04:22:20.761Z,15.85
2023-03-17T04:25:07.492Z,16.08
2023-03-17T04:27:53.445Z,16.33
2023-03-17T04:30:39.211Z,22.73
2023-03-17T04:33:24.500Z,15.27
2023-03-17T04:36:19.979Z,12.85
2023-03-17T04:39:05.022Z,12.55
2023-03-17T04:41:50.893Z,14.23
2023-03-17T04:44:36.717Z,14.63
2023-03-17T04:47:22.346Z,11.85
2023-03-17T04:50:08.991Z,13.02
2023-03-17T04:52:54.635Z,13.50
2023-03-17T04:55:40.711Z,13.18
2023-03-17T04:58:30.728Z,11.80
2023-03-17T05:01:17.390Z,16.63
2023-03-17T05:04:03.771Z,13.25
2023-03-17T05:06:49.538Z,11.63
2023-03-17T05:09:35.324Z,13.05
2023-03-17T05:12:20.592Z,11.55
2023-03-17T05:15:06.858Z,12.43
2023-03-17T05:17:52.054Z,10.80
2023-03-17T05:20:37.757Z,11.48
2023-03-17T05:23:23.222Z,9.75
2023-03-17T05:26:08.965Z,10.10
2023-03-17T05:28:54.302Z,10.77
2023-03-17T05:31:40.065Z,10.55
2023-03-17T05:34:25.845Z,11.88
2023-03-17T05:37:11.855Z,14.88
2023-03-17T05:39:57.731Z,14.15
2023-03-17T05:42:43.726Z,14.52
2023-03-17T05:45:30.151Z,15.27
2023-03-17T05:48:17.620Z,15.70
2023-03-17T05:51:03.762Z,16.38
2023-03-17T05:53:49.035Z,18.20
2023-03-17T05:56:34.821Z,19.10
2023-03-17T05:59:20.620Z,19.83
2023-03-17T06:02:05.976Z,19.90
2023-03-17T06:04:52.157Z,21.05
2023-03-17T06:07:51.641Z,19.73
2023-03-17T06:10:38.703Z,21.85
2023-03-17T06:13:24.281Z,21.55
2023-03-17T06:16:09.788Z,22.90
2023-03-17T06:18:55.885Z,23.55
2023-03-17T06:21:41.736Z,25.17
2023-03-17T06:24:27.328Z,20.45
2023-03-17T06:27:14.361Z,22.90
2023-03-17T06:30:00.365Z,25.73
2023-03-17T06:32:45.911Z,21.27
2023-03-17T06:35:33.416Z,25.08
2023-03-17T06:38:20.801Z,21.83
2023-03-17T06:41:06.131Z,22.75
2023-03-17T06:43:52.409Z,21.55
2023-03-17T06:46:38.160Z,21.23
2023-03-17T06:49:23.868Z,20.02
2023-03-17T06:52:09.815Z,21.20
2023-03-17T06:54:55.566Z,20.20
2023-03-17T06:57:41.041Z,19.85
2023-03-17T07:00:27.672Z,21.98
2023-03-17T07:03:13.461Z,19.05
2023-03-17T07:05:59.918Z,16.92
2023-03-17T07:08:46.393Z,19.95
2023-03-17T07:11:32.776Z,20.48
2023-03-17T07:14:18.858Z,20.48
2023-03-17T07:17:06.281Z,18.08
2023-03-17T07:19:52.521Z,18.05
2023-03-17T07:22:38.129Z,18.55
2023-03-17T07:25:24.126Z,17.88
2023-03-17T07:28:10.334Z,17.20
2023-03-17T07:30:58.134Z,18.98
2023-03-17T07:33:44.120Z,16.33
2023-03-17T07:36:29.549Z,15.98
2023-03-17T07:39:15.681Z,19.02
2023-03-17T07:42:01.173Z,17.70
2023-03-17T07:44:47.421Z,16.75
2023-03-17T07:47:33.122Z,22.67
2023-03-17T07:50:19.113Z,15.95
2023-03-17T07:53:04.911Z,16.23
2023-03-17T07:55:50.339Z,15.77
2023-03-17T07:58:36.025Z,15.43
2023-03-17T08:01:21.639Z,17.80
2023-03-17T08:04:07.658Z,14.88
2023-03-17T08:06:54.641Z,17.60
2023-03-17T08:09:40.924Z,16.27
2023-03-17T08:12:26.453Z,16.00
2023-03-17T08:15:12.087Z,16.38
2023-03-17T08:17:57.760Z,15.30
2023-03-17T08:20:43.556Z,14.32
2023-03-17T08:23:29.322Z,15.85
2023-03-17T08:26:14.921Z,15.80
2023-03-17T08:29:01.133Z,13.80
2023-03-17T08:31:47.021Z,13.43
2023-03-17T08:34:32.584Z,11.85
2023-03-17T08:37:18.174Z,11.48
2023-03-17T08:40:05.504Z,9.82
2023-03-17T08:42:51.253Z,10.25
2023-03-17T08:45:38.771Z,11.70
2023-03-17T08:48:24.417Z,8.57
2023-03-17T08:51:10.083Z,8.93
2023-03-17T08:53:56.155Z,9.85
2023-03-17T08:56:42.234Z,9.15
2023-03-17T08:59:28.048Z,9.45
2023-03-17T09:02:14.579Z,7.63
2023-03-17T09:04:59.923Z,7.43
2023-03-17T09:07:45.594Z,7.93
2023-03-17T09:10:31.258Z,6.82
2023-03-17T09:13:17.682Z,8.70
2023-03-17T09:16:03.428Z,8.40
2023-03-17T09:18:49.012Z,7.63
2023-03-17T09:21:34.451Z,8.88
2023-03-17T09:24:20.775Z,9.57
2023-03-17T09:27:06.244Z,8.57
2023-03-17T09:29:51.912Z,13.40
2023-03-17T09:32:38.094Z,9.88
2023-03-17T09:35:23.615Z,10.98
2023-03-17T09:38:10.308Z,8.43
2023-03-17T09:41:19.876Z,9.00
2023-03-17T09:44:30.120Z,7.57
2023-03-17T09:47:42.211Z,9.30
2023-03-17T09:50:32.401Z,6.05
2023-03-17T09:53:22.865Z,7.05
2023-03-17T09:56:20.471Z,6.60
2023-03-17T09:59:37.426Z,5.32
2023-03-17T10:02:31.945Z,5.55
2023-03-17T10:05:22.015Z,4.50
2023-03-17T10:08:22.772Z,3.95
2023-03-17T10:11:19.606Z,5.05
2023-03-17T10:14:12.614Z,7.05
2023-03-17T10:17:00.564Z,5.25
2023-03-17T10:19:56.245Z,5.60
2023-03-17T10:22:47.900Z,5.57
2023-03-17T10:25:37.451Z,6.13
2023-03-17T10:28:32.536Z,5.32
2023-03-17T10:31:27.009Z,7.00
2023-03-17T10:34:39.678Z,4.05
2023-03-17T10:37:26.753Z,5.85
2023-03-17T10:40:28.653Z,5.07
2023-03-17T10:43:20.784Z,2.97
2023-03-17T10:46:15.810Z,5.03
2023-03-17T10:49:17.485Z,4.88
2023-03-17T10:52:08.105Z,4.05
2023-03-17T10:54:56.850Z,5.07
2023-03-17T10:57:57.759Z,5.47
2023-03-17T11:01:19.842Z,4.55
2023-03-17T11:04:42.636Z,5.72
2023-03-17T11:07:35.622Z,7.20
2023-03-17T11:10:24.844Z,8.80
2023-03-17T11:13:16.594Z,5.35
2023-03-17T11:16:08.546Z,6.38
2023-03-17T11:18:57.949Z,6.15
2023-03-17T11:21:59.922Z,6.22
2023-03-17T11:25:05.669Z,7.07
2023-03-17T11:28:08.004Z,7.65
2023-03-17T11:31:17.264Z,5.28
2023-03-17T11:34:20.069Z,9.20
2023-03-17T11:37:10.276Z,6.60
2023-03-17T11:40:14.701Z,5.10
2023-03-17T11:43:25.208Z,7.55
2023-03-17T11:46:27.689Z,7.88
2023-03-17T11:49:28.600Z,10.00
2023-03-17T11:52:26.894Z,8.32
2023-03-17T11:55:19.697Z,10.98
2023-03-17T11:58:12.826Z,9.25
2023-03-17T12:01:00.731Z,11.18
2023-03-17T12:04:07.693Z,10.10
2023-03-17T12:07:01.291Z,11.50
2023-03-17T12:10:04.506Z,7.13
2023-03-17T12:13:06.986Z,9.52
2023-03-17T12:16:15.841Z,6.65
2023-03-17T12:19:16.846Z,5.90
2023-03-17T12:22:22.709Z,8.88
2023-03-17T12:25:32.713Z,6.78
2023-03-17T12:28:23.176Z,5.65
2023-03-17T12:31:15.871Z,9.18
2023-03-17T12:34:17.345Z,6.57
2023-03-17T12:37:03.734Z,6.57
2023-03-17T12:39:55.736Z,4.78
2023-03-17T12:43:18.634Z,5.60
2023-03-17T12:46:29.012Z,5.97
2023-03-17T12:49:46.070Z,5.35
2023-03-17T12:52:53.867Z,4.75
2023-03-17T12:55:42.314Z,8.75
2023-03-17T12:58:37.693Z,5.68
2023-03-17T13:01:26.540Z,7.85
2023-03-17T13:04:26.458Z,6.53
2023-03-17T13:07:21.917Z,5.30
2023-03-17T13:10:19.570Z,6.43
2023-03-17T13:13:11.088Z,4.85
2023-03-17T13:15:58.835Z,10.00
2023-03-17T13:18:48.000Z,5.45
2023-03-17T13:21:36.352Z,4.72
2023-03-17T13:24:34.582Z,6.40
2023-03-17T13:27:32.465Z,5.40
2023-03-17T13:30:26.248Z,6.50
2023-03-17T13:33:26.147Z,3.00
2023-03-17T13:36:21.282Z,5.00
2023-03-17T13:39:38.458Z,7.15
2023-03-17T13:42:42.418Z,3.28
2023-03-17T13:48:30.301Z,5.38
2023-03-17T13:51:25.775Z,6.80
2023-03-17T13:54:28.759Z,5.40
2023-03-17T13:57:28.220Z,4.07
2023-03-17T14:00:16.327Z,7.68
2023-03-17T14:03:36.461Z,3.50
2023-03-17T14:06:36.588Z,7.43
2023-03-17T14:09:37.848Z,6.22
2023-03-17T14:12:40.144Z,4.40
2023-03-17T14:15:58.897Z,4.47
2023-03-17T14:19:00.493Z,4.55
2023-03-17T14:21:46.288Z,3.50
2023-03-17T14:24:34.240Z,3.40
2023-03-17T14:27:22.466Z,9.20
2023-03-17T14:30:36.224Z,3.88
2023-03-17T14:36:14.353Z,4.68
2023-03-17T14:39:00.010Z,4.47
2023-03-17T14:41:46.080Z,6.07
2023-03-17T14:44:42.796Z,5.22
2023-03-17T14:47:29.302Z,5.80
2023-03-17T14:50:25.375Z,3.78
2023-03-17T14:53:11.354Z,4.55
2023-03-17T14:55:57.357Z,7.82
2023-03-17T14:58:44.006Z,5.28
2023-03-17T15:01:41.813Z,3.28
2023-03-17T15:04:33.439Z,5.20
2023-03-17T15:07:51.964Z,8.95
2023-03-17T15:10:43.103Z,5.43
2023-03-17T15:13:33.526Z,3.42
2023-03-17T15:16:27.139Z,4.70
2023-03-17T15:19:40.302Z,3.13
2023-03-17T15:22:34.225Z,9.83
2023-03-17T15:25:34.746Z,11.90
2023-03-17T15:28:22.660Z,9.40
2023-03-17T15:31:14.565Z,3.13
2023-03-17T15:34:00.590Z,4.68
2023-03-17T15:36:47.617Z,4.85
2023-03-17T15:39:33.956Z,4.57
2023-03-17T15:42:21.735Z,7.47
2023-03-17T15:45:07.915Z,7.95
2023-03-17T15:47:55.377Z,6.85
2023-03-17T15:50:41.665Z,6.25
2023-03-17T15:53:28.460Z,5.50
2023-03-17T15:56:19.437Z,8.57
2023-03-17T15:59:05.140Z,10.15
2023-03-17T16:01:51.367Z,6.10
2023-03-17T16:04:37.044Z,5.35
2023-03-17T16:07:23.788Z,6.53
2023-03-17T16:10:23.309Z,8.35
2023-03-17T16:13:09.619Z,9.82
2023-03-17T16:15:59.039Z,9.13
2023-03-17T16:18:46.961Z,7.78
2023-03-17T16:21:33.147Z,8.48
2023-03-17T16:24:21.825Z,9.40
2023-03-17T16:27:15.045Z,7.97
2023-03-17T16:30:00.627Z,12.98
2023-03-17T16:32:47.004Z,7.40
2023-03-17T16:35:32.547Z,11.52
2023-03-17T16:38:21.356Z,12.95
2023-03-17T16:41:30.581Z,9.98
2023-03-17T16:44:18.938Z,10.50
2023-03-17T16:47:05.142Z,7.38
2023-03-17T16:49:50.818Z,5.07
2023-03-17T16:52:37.456Z,10.88
2023-03-17T16:55:24.067Z,8.10
2023-03-17T16:58:27.892Z,9.57
2023-03-17T17:01:23.869Z,7.97
2023-03-17T17:04:11.178Z,7.07
2023-03-17T17:06:56.817Z,7.53
2023-03-17T17:09:42.786Z,6.53
2023-03-17T17:12:28.249Z,8.13
2023-03-17T17:15:17.054Z,12.80
2023-03-17T17:18:06.122Z,9.95
2023-03-17T17:20:53.377Z,7.72
2023-03-17T17:23:38.611Z,8.73
2023-03-17T17:26:24.257Z,10.32
2023-03-17T17:29:10.017Z,9.65
2023-03-17T17:31:56.167Z,9.00
2023-03-17T17:34:41.652Z,11.63
2023-03-17T17:37:27.632Z,9.35
2023-03-17T17:40:16.590Z,9.70
2023-03-17T17:43:02.424Z,7.05
2023-03-17T17:45:48.837Z,4.82
2023-03-17T17:48:34.235Z,7.18
2023-03-17T17:51:19.804Z,12.45
2023-03-17T17:54:05.657Z,9.68
2023-03-17T17:56:52.282Z,8.02
2023-03-17T17:59:37.988Z,14.48
2023-03-17T18:02:23.743Z,10.13
2023-03-17T18:05:09.855Z,10.05
2023-03-17T18:07:55.478Z,12.40
2023-03-17T18:10:41.411Z,10.23
2023-03-17T18:13:27.257Z,13.20
2023-03-17T18:16:15.767Z,8.75
2023-03-17T18:19:02.618Z,10.57
2023-03-17T18:21:48.506Z,10.57
2023-03-17T18:24:34.181Z,8.23
2023-03-17T18:27:19.772Z,12.88
2023-03-17T18:30:07.701Z,9.48
2023-03-17T18:32:57.865Z,10.45
2023-03-17T18:35:46.231Z,9.13
2023-03-17T18:38:32.241Z,10.18
2023-03-17T18:41:17.898Z,12.75
2023-03-17T18:44:03.797Z,14.70
2023-03-17T18:46:49.309Z,13.25
2023-03-17T18:49:35.263Z,16.95
2023-03-17T18:52:22.038Z,9.27
2023-03-17T18:55:09.232Z,12.10
2023-03-17T18:57:55.073Z,12.23
2023-03-17T19:00:41.198Z,17.40
2023-03-17T19:03:28.142Z,9.98
2023-03-17T19:06:16.327Z,12.38
2023-03-17T19:09:02.507Z,14.85
2023-03-17T19:11:48.724Z,15.93
2023-03-17T19:14:34.936Z,15.07
2023-03-17T19:17:20.299Z,17.90
2023-03-17T19:20:07.810Z,14.70
2023-03-17T19:22:56.982Z,17.10
2023-03-17T19:25:42.831Z,16.95
2023-03-17T19:28:28.836Z,7.07
2023-03-17T19:31:14.518Z,14.68
2023-03-17T19:34:00.474Z,13.38
2023-03-17T19:36:46.924Z,10.55
2023-03-17T19:39:33.928Z,11.15
2023-03-17T19:42:22.603Z,17.63
2023-03-17T19:45:08.798Z,16.30
2023-03-17T19:47:57.581Z,16.55
2023-03-17T19:50:43.574Z,13.60
2023-03-17T19:53:29.084Z,19.02
2023-03-17T19:56:15.353Z,20.42
2023-03-17T19:59:00.709Z,14.15
2023-03-17T20:01:48.620Z,19.10
2023-03-17T20:04:34.580Z,19.10
2023-03-17T20:07:20.809Z,25.13
2023-03-17T20:10:07.777Z,20.85
2023-03-17T20:12:53.379Z,19.55
2023-03-17T20:15:39.568Z,23.17
2023-03-17T20:18:24.890Z,25.10
2023-03-17T20:21:13.890Z,20.73
2023-03-17T20:23:59.574Z,25.30
2023-03-17T20:26:45.623Z,25.33
2023-03-17T20:29:31.693Z,25.33
2023-03-17T20:32:17.499Z,27.35
2023-03-17T20:35:02.910Z,21.17
2023-03-17T20:37:48.432Z,28.58
2023-03-17T20:40:34.257Z,23.33
2023-03-17T20:43:19.782Z,24.75
2023-03-17T20:46:08.714Z,23.75
2023-03-17T20:48:59.061Z,24.58
2023-03-17T20:51:46.390Z,22.77
2023-03-17T20:54:32.388Z,24.33
2023-03-17T20:57:18.753Z,19.80
2023-03-17T21:00:05.619Z,21.23
2023-03-17T21:02:51.618Z,25.80
2023-03-17T21:05:37.259Z,23.00
2023-03-17T21:08:23.426Z,26.98
2023-03-17T21:11:13.289Z,21.90
2023-03-17T21:13:59.028Z,23.02
2023-03-17T21:16:45.249Z,24.70
2023-03-17T21:19:31.859Z,26.98
2023-03-17T21:22:18.001Z,19.08
2023-03-17T21:25:08.700Z,25.05
2023-03-17T21:27:54.092Z,20.67
2023-03-17T21:30:43.150Z,25.75
2023-03-17T21:33:28.983Z,17.77
2023-03-17T21:36:14.522Z,20.02
2023-03-17T21:39:00.962Z,17.38
2023-03-17T21:41:49.290Z,16.63
2023-03-17T21:44:34.875Z,21.05
2023-03-17T21:47:20.614Z,23.27
2023-03-17T21:50:06.730Z,18.52
2023-03-17T21:52:52.184Z,17.75
2023-03-17T21:55:37.900Z,19.65
2023-03-17T21:58:23.901Z,19.45
2023-03-17T22:01:10.061Z,17.55
2023-03-17T22:03:55.998Z,18.60
2023-03-17T22:06:41.483Z,16.95
2023-03-17T22:09:27.804Z,17.42
2023-03-17T22:12:13.723Z,17.35
2023-03-17T22:14:59.327Z,15.95
2023-03-17T22:17:45.388Z,14.85
2023-03-17T22:20:31.595Z,14.35
2023-03-17T22:23:17.354Z,17.85
2023-03-17T22:26:03.119Z,20.17
2023-03-17T22:28:49.758Z,16.05
2023-03-17T22:31:35.633Z,17.83
2023-03-17T22:34:21.404Z,17.70
2023-03-17T22:37:07.745Z,16.35
2023-03-17T22:39:53.785Z,19.30
2023-03-17T22:42:39.216Z,12.52
2023-03-17T22:45:25.993Z,19.35
2023-03-17T22:48:11.569Z,13.93
2023-03-17T22:51:02.072Z,14.63
2023-03-17T22:53:47.734Z,13.95
2023-03-17T22:56:33.343Z,16.35
2023-03-17T22:59:19.024Z,20.88
2023-03-17T23:02:04.695Z,13.63
2023-03-17T23:04:50.731Z,13.52
2023-03-17T23:07:49.480Z,13.40
2023-03-17T23:10:35.363Z,12.07
2023-03-17T23:13:22.374Z,9.98
2023-03-17T23:16:08.887Z,11.23
2023-03-17T23:18:54.780Z,17.45
2023-03-17T23:21:40.608Z,12.30
2023-03-17T23:24:26.031Z,12.93
2023-03-17T23:27:12.100Z,15.68
2023-03-17T23:29:59.237Z,13.63
2023-03-17T23:32:45.982Z,16.17
2023-03-17T23:35:31.542Z,17.45
2023-03-17T23:38:19.578Z,18.75
2023-03-17T23:41:05.455Z,18.23
2023-03-17T23:43:51.062Z,16.88
2023-03-17T23:46:36.725Z,20.27
2023-03-17T23:49:22.222Z,16.90
2023-03-17T23:52:08.978Z,16.50
2023-03-17T23:54:54.592Z,18.23
2023-03-17T23:57:40.132Z,16.95
